Time;durP1;ratioP1;P1;durP2;ratioP2;P2;SDS_P1;SDS_P2;PMS_P1;PMS_P2;Temp;Humidity;BMP_temperature;BMP_pressure;BME280_temperature;BME280_humidity;BME280_pressure;Samples;Min_cycle;Max_cycle;Signal;HPM_P1;HPM_P2
2021/04/24 00:00:06;;;;;;;15.02;5.05;;;;;;;7.24;58.34;101247.59;4988654;28;20053;-66
2021/04/24 00:02:50;;;;;;;13.35;4.60;;;;;;;7.22;59.60;101250.38;5015737;28;20057;-67
2021/04/24 00:05:43;;;;;;;;;;;;;;;7.17;59.42;101247.16;5016145;28;20103;-67
2021/04/24 00:08:27;;;;;;;14.20;5.18;;;;;;;7.14;59.30;101250.03;5000805;28;19924;-67
2021/04/24 00:11:11;;;;;;;11.68;4.25;;;;;;;7.07;59.45;101254.00;5000754;28;20076;-66
2021/04/24 00:13:55;;;;;;;12.65;4.80;;;;;;;7.10;59.11;101242.34;5015621;28;20413;-66
2021/04/24 00:16:39;;;;;;;11.52;4.43;;;;;;;7.11;57.02;101250.22;5015505;28;20052;-66
2021/04/24 00:19:24;;;;;;;7.88;3.65;;;;;;;7.17;55.44;101252.47;5015216;28;20052;-67
2021/04/24 00:22:07;;;;;;;10.18;4.32;;;;;;;7.22;54.24;101247.72;5000534;28;20147;-66
2021/04/24 00:24:51;;;;;;;8.80;4.57;;;;;;;7.18;54.09;101245.38;5000182;28;20096;-66
2021/04/24 00:27:35;;;;;;;10.38;5.18;;;;;;;7.22;54.10;101241.56;5000154;28;20048;-66
2021/04/24 00:30:20;;;;;;;8.10;4.63;;;;;;;7.23;55.02;101243.25;4999984;28;20081;-64
2021/04/24 00:33:05;;;;;;;9.80;4.88;;;;;;;7.18;54.46;101243.56;5015109;28;20049;-66
2021/04/24 00:35:49;;;;;;;9.82;4.30;;;;;;;7.20;54.25;101249.59;4986451;28;20107;-67
2021/04/24 00:38:33;;;;;;;7.75;4.70;;;;;;;7.14;53.41;101236.75;5015111;28;20052;-66
2021/04/24 00:41:17;;;;;;;10.27;4.68;;;;;;;7.16;52.91;101237.50;5015045;28;20060;-66
2021/04/24 00:44:01;;;;;;;9.45;4.30;;;;;;;7.15;53.03;101235.81;4999813;28;20129;-66
2021/04/24 00:46:45;;;;;;;7.90;4.07;;;;;;;7.10;53.58;101231.75;5015192;28;20063;-67
2021/04/24 00:49:29;;;;;;;9.20;4.47;;;;;;;7.09;53.63;101238.84;4999918;28;20056;-66
2021/04/24 00:52:13;;;;;;;8.60;3.97;;;;;;;7.11;54.09;101231.66;5014824;28;20507;-67
2021/04/24 00:54:57;;;;;;;8.93;4.20;;;;;;;7.11;53.37;101225.50;4999834;28;20139;-67
2021/04/24 00:57:41;;;;;;;10.85;4.53;;;;;;;7.07;52.82;101222.19;4999818;28;20061;-67
2021/04/24 01:00:26;;;;;;;8.73;4.28;;;;;;;7.11;52.99;101217.53;4999436;28;20091;-66
2021/04/24 01:03:10;;;;;;;;;;;;;;;7.10;53.39;101213.19;4999681;28;20561;-67
2021/04/24 01:05:54;;;;;;;10.75;4.53;;;;;;;7.12;52.43;101220.09;5014609;28;19936;-65
2021/04/24 01:08:38;;;;;;;7.95;4.20;;;;;;;7.13;52.70;101208.53;4999752;28;20049;-66
2021/04/24 01:11:22;;;;;;;8.55;4.13;;;;;;;7.14;52.69;101210.25;5014476;28;20084;-66
2021/04/24 01:14:06;;;;;;;10.13;4.90;;;;;;;7.08;52.70;101209.78;5014086;28;20048;-67
2021/04/24 01:16:50;;;;;;;9.75;4.70;;;;;;;7.04;52.85;101211.78;4999448;28;20092;-67
2021/04/24 01:19:34;;;;;;;8.80;4.93;;;;;;;7.03;52.94;101210.09;4999357;28;20055;-67
2021/04/24 01:22:17;;;;;;;7.20;4.78;;;;;;;7.02;53.75;101212.84;5014050;28;20477;-66
2021/04/24 01:25:07;;;;;;;9.88;4.60;;;;;;;7.02;53.74;101213.69;4999202;28;20049;-66
2021/04/24 01:27:54;;;;;;;7.13;4.40;;;;;;;7.01;54.50;101212.00;5013935;28;20091;-66
2021/04/24 01:30:41;;;;;;;7.93;4.82;;;;;;;7.03;53.99;101214.53;4999042;28;20053;-66
2021/04/24 01:33:27;;;;;;;11.13;4.85;;;;;;;6.95;54.61;101211.50;4999219;28;20111;-67
2021/04/24 01:36:11;;;;;;;9.45;4.65;;;;;;;6.94;55.02;101210.69;4999159;28;20087;-66
2021/04/24 01:38:58;;;;;;;12.85;4.82;;;;;;;6.92;55.49;101207.28;5013933;28;20458;-66
2021/04/24 01:41:42;;;;;;;9.50;4.05;;;;;;;6.87;55.47;101205.88;5013737;28;20049;-67
2021/04/24 01:44:26;;;;;;;10.75;4.70;;;;;;;6.81;55.58;101214.22;5013688;28;20072;-67
2021/04/24 01:47:10;;;;;;;9.63;5.18;;;;;;;6.79;55.74;101206.34;5013673;28;20056;-67
2021/04/24 01:49:54;;;;;;;8.50;4.57;;;;;;;6.81;55.86;101204.47;4998681;28;20074;-67
2021/04/24 01:52:40;;;;;;;12.40;5.25;;;;;;;6.81;55.66;101215.06;5014021;28;20419;-66
2021/04/24 01:55:27;;;;;;;7.97;4.65;;;;;;;6.74;56.04;101204.94;4998607;28;20067;-66
2021/04/24 01:58:12;;;;;;;13.90;4.95;;;;;;;6.77;55.72;101202.94;4998625;28;20517;-67
2021/04/24 02:01:03;;;;;;;9.38;4.75;;;;;;;6.77;56.09;101208.25;5013332;28;20056;-66
2021/04/24 02:03:48;;;;;;;13.38;4.78;;;;;;;6.71;56.47;101208.66;4984806;28;20095;-67
2021/04/24 02:06:35;;;;;;;9.88;4.28;;;;;;;6.67;56.43;101201.84;4998997;28;20462;-66
2021/04/24 02:09:20;;;;;;;9.88;4.70;;;;;;;6.65;56.47;101209.03;4998433;28;20061;-67
2021/04/24 02:12:10;;;;;;;10.73;4.70;;;;;;;6.59;57.46;101192.69;4998469;28;20561;-66
2021/04/24 02:14:55;;;;;;;12.63;4.70;;;;;;;6.60;57.34;101200.53;4986119;28;20048;-66
2021/04/24 02:17:38;;;;;;;8.63;4.68;;;;;;;6.58;57.22;101201.56;5017426;28;20440;-67
2021/04/24 02:20:22;;;;;;;11.85;4.65;;;;;;;6.53;57.54;101201.88;5017435;28;20045;-66
2021/04/24 02:23:08;;;;;;;10.27;4.50;;;;;;;6.54;58.22;101190.31;5002486;28;20053;-66
2021/04/24 02:25:52;;;;;;;9.32;4.80;;;;;;;6.51;58.05;101197.59;4988647;28;20084;-66
2021/04/24 02:28:36;;;;;;;8.57;4.82;;;;;;;6.46;58.16;101186.47;5002261;28;20052;-66
2021/04/24 02:31:23;;;;;;;9.25;5.55;;;;;;;6.41;59.33;101185.88;5002489;28;20084;-65
2021/04/24 02:34:07;;;;;;;11.27;4.85;;;;;;;6.40;59.02;101187.69;5002437;28;20116;-67
2021/04/24 02:36:51;;;;;;;10.57;4.78;;;;;;;6.37;59.51;101182.56;5002456;28;20072;-66
2021/04/24 02:39:38;;;;;;;12.60;5.38;;;;;;;6.33;60.08;101181.06;4988448;28;20522;-66
2021/04/24 02:42:25;;;;;;;11.65;5.47;;;;;;;6.32;59.92;101192.63;5002089;28;20521;-66
2021/04/24 02:45:10;;;;;;;11.75;5.03;;;;;;;6.33;60.67;101180.19;5017172;28;20099;-66
2021/04/24 02:47:54;;;;;;;10.25;4.75;;;;;;;6.31;60.33;101177.66;5017124;28;20100;-67
2021/04/24 02:50:38;;;;;;;8.50;5.30;;;;;;;6.30;60.82;101185.69;5017033;28;20411;-67
2021/04/24 02:53:22;;;;;;;9.60;4.75;;;;;;;6.25;61.25;101185.16;5016984;28;20060;-67
2021/04/24 02:56:06;;;;;;;9.82;4.75;;;;;;;6.26;61.54;101174.44;5002147;28;20080;-66
2021/04/24 02:58:50;;;;;;;11.18;5.13;;;;;;;6.21;61.40;101181.84;4987894;28;20080;-66
2021/04/24 03:01:34;;;;;;;8.20;5.75;;;;;;;6.23;61.16;101173.78;5016800;28;20096;-66
2021/04/24 03:04:18;;;;;;;11.07;5.20;;;;;;;6.24;61.46;101180.81;5001935;28;20132;-66
2021/04/24 03:07:02;;;;;;;12.65;5.65;;;;;;;6.27;61.77;101180.59;5016513;28;20137;-66
2021/04/24 03:09:46;;;;;;;8.20;4.72;;;;;;;6.27;61.95;101181.44;5016644;28;20156;-67
2021/04/24 03:12:30;;;;;;;12.10;5.47;;;;;;;6.25;61.97;101183.34;5002063;28;20068;-65
2021/04/24 03:15:14;;;;;;;9.20;5.20;;;;;;;6.24;62.07;101178.16;5016554;28;20048;-67
2021/04/24 03:17:58;;;;;;;12.48;5.57;;;;;;;6.18;62.63;101184.66;5016303;28;20073;-66
2021/04/24 03:20:42;;;;;;;8.32;5.15;;;;;;;6.13;63.08;101178.81;5001375;28;20049;-67
2021/04/24 03:23:26;;;;;;;11.30;5.50;;;;;;;6.09;63.34;101181.72;5016494;28;20063;-66
2021/04/24 03:26:10;;;;;;;13.27;5.55;;;;;;;6.03;63.38;101182.09;5000855;28;20495;-66
2021/04/24 03:28:54;;;;;;;12.45;5.60;;;;;;;6.04;63.38;101179.38;4987649;28;20048;-67
2021/04/24 03:31:37;;;;;;;17.45;5.70;;;;;;;6.08;63.73;101180.03;5016361;28;20056;-66
2021/04/24 03:34:21;;;;;;;12.15;5.07;;;;;;;6.08;63.70;101186.19;5016055;28;20521;-67
2021/04/24 03:37:05;;;;;;;9.43;5.70;;;;;;;6.05;63.77;101183.72;5001448;28;20064;-66
2021/04/24 03:39:49;;;;;;;10.10;5.97;;;;;;;5.97;64.82;101182.47;5001174;28;20064;-66
2021/04/24 03:42:33;;;;;;;11.65;5.38;;;;;;;5.98;64.94;101187.69;5016122;28;20052;-66
2021/04/24 03:45:18;;;;;;;11.80;6.00;;;;;;;5.98;65.32;101185.03;5001284;28;20402;-66
2021/04/24 03:48:02;;;;;;;9.18;5.30;;;;;;;5.98;65.13;101195.63;4987569;28;20079;-66
2021/04/24 03:50:46;;;;;;;13.20;5.80;;;;;;;5.95;65.47;101192.31;5015674;28;20161;-67
2021/04/24 03:53:30;;;;;;;10.57;5.90;;;;;;;6.00;65.98;101201.69;5015866;28;20133;-66
2021/04/24 03:56:14;;;;;;;13.77;5.68;;;;;;;6.02;66.06;101198.91;5000772;28;20048;-66
2021/04/24 03:58:58;;;;;;;14.45;5.97;;;;;;;6.02;66.12;101190.97;5015522;28;20526;-66
2021/04/24 04:01:42;;;;;;;13.43;5.70;;;;;;;6.02;66.25;101197.13;5000949;28;20076;-66
2021/04/24 04:04:26;;;;;;;11.38;6.00;;;;;;;6.04;66.35;101200.53;5015789;28;20107;-66
2021/04/24 04:07:10;;;;;;;11.40;5.97;;;;;;;6.05;66.25;101206.69;5015691;28;20052;-66
2021/04/24 04:09:54;;;;;;;12.52;6.25;;;;;;;6.09;66.26;101203.78;5000488;28;20104;-66
2021/04/24 04:12:38;;;;;;;10.63;6.15;;;;;;;6.11;66.22;101207.16;5000718;28;20057;-66
2021/04/24 04:15:23;;;;;;;10.60;6.07;;;;;;;6.14;66.82;101212.28;5015506;28;20045;-66
2021/04/24 04:18:15;;;;;;;10.93;5.88;;;;;;;6.16;66.62;101215.66;5015318;28;20564;-66
2021/04/24 04:20:59;;;;;;;10.30;5.65;;;;;;;6.15;66.93;101213.13;5015046;28;20048;-66
2021/04/24 04:23:43;;;;;;;13.88;6.40;;;;;;;6.19;67.07;101214.63;5000573;28;20124;-66
2021/04/24 04:26:27;;;;;;;10.07;5.88;;;;;;;6.16;67.41;101210.38;5015178;28;20494;-66
2021/04/24 04:29:10;;;;;;;14.88;6.43;;;;;;;6.18;67.33;101221.72;4986639;28;20052;-66
2021/04/24 04:31:54;;;;;;;14.05;6.78;;;;;;;6.21;67.14;101216.25;5015230;28;20462;-65
2021/04/24 04:34:38;;;;;;;11.27;6.45;;;;;;;6.22;67.83;101220.59;5014967;28;20084;-66
2021/04/24 04:37:22;;;;;;;12.95;6.72;;;;;;;6.23;67.95;101222.31;5014366;28;20470;-66
2021/04/24 04:40:08;;;;;;;16.38;6.57;;;;;;;6.25;67.41;101225.69;5015021;28;20115;-66
2021/04/24 04:42:52;;;;;;;15.35;6.85;;;;;;;6.22;67.86;101228.53;4999881;28;20049;-66
2021/04/24 04:45:36;;;;;;;17.88;7.30;;;;;;;6.23;68.04;101232.91;4999873;28;20048;-67
2021/04/24 04:48:20;;;;;;;15.43;7.30;;;;;;;6.26;67.99;101222.09;5000335;28;20072;-67
2021/04/24 04:51:04;;;;;;;21.55;6.43;;;;;;;6.25;68.17;101228.34;5014939;28;20104;-67
2021/04/24 04:53:48;;;;;;;14.68;7.28;;;;;;;6.27;68.60;101229.09;4985910;28;20147;-67
2021/04/24 04:56:32;;;;;;;19.83;8.20;;;;;;;6.30;68.52;101228.94;5014772;28;20052;-67
2021/04/24 04:59:16;;;;;;;16.25;6.82;;;;;;;6.37;68.74;101232.06;4999420;28;20133;-67
2021/04/24 05:01:59;;;;;;;15.68;7.20;;;;;;;6.46;68.10;101228.84;4999840;28;20121;-66
2021/04/24 05:04:45;;;;;;;15.10;7.60;;;;;;;6.47;68.42;101236.66;5014581;28;20049;-66
2021/04/24 05:07:29;;;;;;;16.75;8.07;;;;;;;6.51;68.45;101235.56;4999508;28;20103;-66
2021/04/24 05:10:13;;;;;;;15.27;7.18;;;;;;;6.57;68.16;101226.38;5014477;28;20100;-66
2021/04/24 05:12:58;;;;;;;13.98;7.03;;;;;;;6.61;68.15;101231.38;4999495;28;20618;-67
2021/04/24 05:15:42;;;;;;;12.75;7.50;;;;;;;6.65;67.66;101232.88;4999590;28;20048;-67
2021/04/24 05:18:25;;;;;;;11.93;6.95;;;;;;;6.75;68.06;101231.34;4999271;28;20057;-66
2021/04/24 05:21:09;;;;;;;14.07;7.22;;;;;;;6.77;67.63;101234.75;5014289;28;20526;-67
2021/04/24 05:23:54;;;;;;;15.65;7.63;;;;;;;6.91;67.55;61774.03;5014242;28;20053;-66
2021/04/24 05:26:38;;;;;;;21.00;8.73;;;;;;;6.96;67.32;101234.44;4999337;28;20150;-67
2021/04/24 05:29:22;;;;;;;14.63;8.13;;;;;;;6.99;67.38;101243.03;4985458;28;20509;-67
2021/04/24 05:32:07;;;;;;;18.48;8.65;;;;;;;7.07;66.92;101242.56;5014135;28;20070;-66
2021/04/24 05:34:51;;;;;;;15.07;7.97;;;;;;;7.10;67.31;101242.34;4998970;28;20625;-67
2021/04/24 05:37:35;;;;;;;16.25;7.43;;;;;;;7.15;66.90;101235.81;4985295;28;20048;-66
2021/04/24 05:40:19;;;;;;;13.32;7.43;;;;;;;7.17;66.38;101244.50;4985375;28;20563;-67
2021/04/24 05:43:03;;;;;;;16.02;9.23;;;;;;;7.25;66.52;101246.66;4999147;28;20041;-67
2021/04/24 05:45:47;;;;;;;18.10;9.15;;;;;;;7.40;66.27;101249.16;4999045;28;20544;-66
2021/04/24 05:48:31;;;;;;;19.48;8.60;;;;;;;7.45;66.53;101249.72;5013853;28;20164;-67
2021/04/24 05:51:16;;;;;;;16.52;8.52;;;;;;;7.48;66.02;101246.84;5013939;28;20096;-67
2021/04/24 05:54:00;;;;;;;18.25;8.15;;;;;;;7.57;65.95;101260.38;5013867;28;20044;-66
2021/04/24 05:56:44;;;;;;;16.88;8.18;;;;;;;7.68;65.29;101257.88;4984989;28;20422;-67
2021/04/24 05:59:28;;;;;;;20.50;9.27;;;;;;;7.75;65.52;101255.66;5039754;22;20891;-69
2021/04/24 06:02:12;;;;;;;18.15;8.32;;;;;;;7.83;64.52;101261.31;5018212;28;20080;-69
2021/04/24 06:04:56;;;;;;;18.50;9.52;;;;;;;7.93;64.76;101257.06;5018417;28;20048;-69
2021/04/24 06:07:40;;;;;;;14.88;7.68;;;;;;;8.00;64.46;101259.22;5033364;28;20498;-67
2021/04/24 06:10:24;;;;;;;16.50;9.13;;;;;;;8.08;64.08;101258.69;5018449;28;20049;-69
2021/04/24 06:13:08;;;;;;;18.67;8.82;;;;;;;8.19;63.92;101253.50;5033264;28;20084;-69
2021/04/24 06:15:54;;;;;;;17.38;8.27;;;;;;;8.28;63.12;101258.19;5033132;28;20047;-68
2021/04/24 06:18:38;;;;;;;13.75;8.18;;;;;;;8.35;62.87;101259.47;5032354;28;20087;-68
2021/04/24 06:21:22;;;;;;;16.23;8.43;;;;;;;8.45;63.07;101265.84;5018258;28;20056;-68
2021/04/24 06:24:07;;;;;;;20.38;8.43;;;;;;;8.53;61.88;101253.72;5032173;28;20083;-69
2021/04/24 06:26:51;;;;;;;;;;;;;;;8.63;61.87;101260.09;5032904;28;20044;-66
2021/04/24 06:29:35;;;;;;;16.37;9.13;;;;;;;8.74;61.55;101257.53;5032254;28;19919;-69
2021/04/24 06:32:18;;;;;;;16.58;7.93;;;;;;;8.88;61.18;101261.88;5018053;28;20128;-68
2021/04/24 06:35:04;;;;;;;20.60;8.85;;;;;;;8.95;61.10;101268.44;5018192;28;20045;-69
2021/04/24 06:37:48;;;;;;;17.48;8.27;;;;;;;9.05;60.23;101266.84;5018247;28;20133;-68
2021/04/24 06:40:32;;;;;;;14.05;7.47;;;;;;;9.12;59.52;101254.75;5031770;28;20116;-68
2021/04/24 06:43:16;;;;;;;13.90;7.45;;;;;;;9.20;60.10;101263.91;5018093;28;20457;-69
2021/04/24 06:46:00;;;;;;;12.82;7.32;;;;;;;9.30;58.83;101266.75;5018380;28;20458;-67
2021/04/24 06:48:44;;;;;;;17.08;7.47;;;;;;;9.36;59.41;101260.97;5018350;28;20390;-69
2021/04/24 06:51:28;;;;;;;13.05;7.93;;;;;;;9.44;58.80;101258.56;5019009;28;20605;-69
2021/04/24 06:54:13;;;;;;;16.15;8.25;;;;;;;9.53;58.82;101252.56;5018338;28;20052;-70
2021/04/24 06:56:57;;;;;;;12.48;7.43;;;;;;;9.67;58.42;101255.06;5017807;28;20095;-70
2021/04/24 06:59:43;;;;;;;15.68;8.05;;;;;;;9.78;57.60;101255.94;5017860;28;20118;-69
2021/04/24 07:02:46;;;;;;;11.45;6.47;;;;;;;9.85;57.11;101251.00;5022206;28;20053;-70
2021/04/24 07:05:30;;;;;;;21.52;8.15;;;;;;;9.95;57.26;101244.88;5021503;28;20072;-70
2021/04/24 07:08:14;;;;;;;17.00;7.30;;;;;;;10.03;56.71;101247.84;5035013;28;20048;-71
2021/04/24 07:10:58;;;;;;;13.63;7.40;;;;;;;10.16;56.24;101245.06;5034896;28;20410;-69
2021/04/24 07:13:42;;;;;;;17.38;8.07;;;;;;;10.28;55.95;101239.66;5035557;28;20414;-70
2021/04/24 07:16:26;;;;;;;20.35;7.75;;;;;;;10.37;56.75;101231.81;5035206;28;20589;-71
2021/04/24 07:19:10;;;;;;;13.70;7.05;;;;;;;10.56;56.17;101231.19;5038885;28;20115;-69
2021/04/24 07:21:54;;;;;;;15.95;7.07;;;;;;;10.65;54.61;101223.31;5024213;28;20095;-69
2021/04/24 07:24:44;;;;;;;16.27;7.63;;;;;;;10.74;54.01;101230.59;5037876;28;20057;-70
2021/04/24 07:27:28;;;;;;;15.95;7.07;;;;;;;10.86;55.44;101231.44;5021172;28;20095;-69
2021/04/24 07:30:12;;;;;;;14.00;7.07;;;;;;;10.99;53.72;101227.66;5035792;28;20048;-69
2021/04/24 07:32:56;;;;;;;13.45;6.55;;;;;;;11.13;53.50;101227.38;5034547;28;20056;-69
2021/04/24 07:35:40;;;;;;;11.15;6.43;;;;;;;11.26;52.61;101238.75;5034409;28;20116;-69
2021/04/24 07:38:25;;;;;;;13.82;6.57;;;;;;;11.33;53.72;101239.94;5035198;28;20052;-69
2021/04/24 07:41:09;;;;;;;16.05;7.40;;;;;;;11.43;51.87;101229.34;5034260;28;20470;-69
2021/04/24 07:43:53;;;;;;;10.15;6.40;;;;;;;11.55;52.64;101223.84;5020414;28;20458;-70
2021/04/24 07:46:37;;;;;;;15.30;6.78;;;;;;;11.62;51.79;101230.41;5034063;28;20088;-69
2021/04/24 07:49:21;;;;;;;12.10;6.00;;;;;;;11.68;51.59;101231.72;5020165;28;20055;-70
2021/04/24 07:52:09;;;;;;;9.65;5.88;;;;;;;11.75;51.27;101231.09;5019933;28;20087;-69
2021/04/24 07:54:54;;;;;;;15.52;6.43;;;;;;;11.88;50.64;101231.75;5020143;28;20044;-69
2021/04/24 07:57:38;;;;;;;15.95;7.28;;;;;;;11.94;50.90;101223.22;5020076;28;20048;-70
2021/04/24 08:00:23;;;;;;;;;;;;;;;12.03;51.58;101219.75;5020062;28;20075;-70
2021/04/24 08:03:07;;;;;;;10.23;6.68;;;;;;;12.14;50.42;101217.03;5033857;28;19935;-69
2021/04/24 08:05:51;;;;;;;11.23;6.72;;;;;;;12.18;49.15;101218.44;5034815;28;20048;-70
2021/04/24 08:08:35;;;;;;;13.60;6.93;;;;;;;12.34;49.47;101220.63;5019613;28;20422;-69
2021/04/24 08:11:19;;;;;;;11.48;6.20;;;;;;;12.39;49.83;101211.25;5019639;28;20466;-70
2021/04/24 08:14:03;;;;;;;11.35;6.35;;;;;;;12.47;48.53;101221.25;5019464;28;20064;-70
2021/04/24 08:16:47;;;;;;;13.13;7.38;;;;;;;12.53;49.05;101213.59;5019717;28;20481;-69
2021/04/24 08:19:32;;;;;;;21.17;7.28;;;;;;;12.58;48.35;101224.72;5019433;28;20142;-70
2021/04/24 08:22:15;;;;;;;18.02;7.03;;;;;;;12.73;47.81;101215.34;5019497;28;20103;-69
2021/04/24 08:25:00;;;;;;;10.98;6.68;;;;;;;12.86;47.74;101215.97;5033409;28;20131;-69
2021/04/24 08:27:44;;;;;;;13.93;6.88;;;;;;;13.02;47.09;101213.63;5034695;28;20438;-69
2021/04/24 08:30:30;;;;;;;12.70;7.38;;;;;;;13.13;47.19;101213.50;5033209;28;20100;-69
2021/04/24 08:33:14;;;;;;;11.18;7.10;;;;;;;13.21;47.67;101208.31;5033148;28;20132;-69
2021/04/24 08:35:58;;;;;;;16.17;7.63;;;;;;;13.28;47.53;101209.47;5034103;28;20048;-70
2021/04/24 08:38:42;;;;;;;13.15;6.80;;;;;;;13.32;46.46;101211.72;5034318;28;20052;-69
2021/04/24 08:41:27;;;;;;;10.98;6.57;;;;;;;13.45;45.82;101208.78;5032972;28;20052;-69
2021/04/24 08:44:14;;;;;;;15.45;7.75;;;;;;;13.59;46.57;101213.72;5033822;28;20091;-69
2021/04/24 08:46:58;;;;;;;12.18;6.88;;;;;;;13.73;45.39;101203.44;5018883;28;20561;-69
2021/04/24 08:49:42;;;;;;;14.63;6.95;;;;;;;13.90;46.22;101197.34;5018958;28;20052;-69
2021/04/24 08:52:26;;;;;;;11.80;6.63;;;;;;;13.92;44.42;101200.72;5018962;28;20052;-69
2021/04/24 08:55:15;;;;;;;16.98;7.30;;;;;;;14.12;45.10;101193.50;5019171;28;20502;-69
2021/04/24 08:58:00;;;;;;;14.77;8.02;;;;;;;14.31;45.48;101194.34;5019410;28;20084;-69
2021/04/24 09:00:48;;;;;;;13.23;7.40;;;;;;;14.44;44.68;101194.00;5018932;28;20099;-69
2021/04/24 09:03:32;;;;;;;13.90;7.03;;;;;;;14.51;43.93;101192.44;5018650;28;20056;-69
2021/04/24 09:06:20;;;;;;;10.13;6.75;;;;;;;14.65;42.10;101191.94;5018807;28;20083;-70
2021/04/24 09:09:10;;;;;;;16.65;6.82;;;;;;;14.76;42.05;101189.06;5018962;28;20559;-70
2021/04/24 09:11:57;;;;;;;12.85;6.80;;;;;;;14.90;42.08;101192.09;5018355;28;20091;-69
2021/04/24 09:14:41;;;;;;;15.75;6.72;;;;;;;15.06;42.83;101183.38;5018562;28;20544;-70
2021/04/24 09:18:12;;;;;;;12.50;7.03;;;;;;;15.21;41.35;101179.19;5033626;28;20047;-69
2021/04/24 09:20:56;;;;;;;36.60;7.97;;;;;;;15.53;40.27;101169.63;5033177;28;20174;-69
2021/04/24 09:23:40;;;;;;;14.23;7.22;;;;;;;15.82;40.27;101165.69;5032129;28;20053;-68
2021/04/24 09:26:27;;;;;;;13.18;7.13;;;;;;;16.00;41.01;101166.50;5018157;28;20053;-70
2021/04/24 09:29:11;;;;;;;12.65;6.97;;;;;;;16.28;40.23;101168.03;5017941;28;20076;-69
2021/04/24 09:32:14;;;;;;;13.90;6.95;;;;;;;16.52;39.02;101165.53;5017670;28;20513;-69
2021/04/24 09:34:58;;;;;;;14.93;7.20;;;;;;;16.75;38.49;101168.47;5031881;28;20045;-69
2021/04/24 09:37:42;;;;;;;16.35;7.43;;;;;;;17.03;38.34;101160.00;5017611;28;20134;-70
2021/04/24 09:40:27;;;;;;;11.95;6.82;;;;;;;17.36;37.52;101151.00;5032354;28;20049;-69
2021/04/24 09:43:11;;;;;;;11.40;7.22;;;;;;;17.67;37.61;101146.66;5031283;28;20075;-69
2021/04/24 09:45:55;;;;;;;15.27;8.23;;;;;;;17.74;35.72;101144.97;5032482;28;20462;-68
2021/04/24 09:48:38;;;;;;;13.02;6.93;;;;;;;18.16;35.50;101142.91;5032794;28;20075;-70
2021/04/24 09:51:22;;;;;;;12.85;7.47;;;;;;;18.69;35.05;101143.09;5032506;28;20115;-69
2021/04/24 09:54:08;;;;;;;14.73;7.88;;;;;;;19.08;32.82;101138.50;5017404;28;20052;-70
2021/04/24 09:57:21;;;;;;;16.90;8.55;;;;;;;19.44;32.42;101135.09;5017666;28;20052;-70
2021/04/24 10:00:17;;;;;;;18.05;8.02;;;;;;;20.80;31.40;101141.00;5030873;28;20377;-69
2021/04/24 10:03:01;;;;;;;12.38;7.50;;;;;;;20.80;31.40;101141.00;5017231;28;20080;-69
2021/04/24 10:05:45;;;;;;;12.15;7.72;;;;;;;23.45;26.85;101117.81;5031036;28;20076;-67
2021/04/24 10:08:28;;;;;;;14.20;7.35;;;;;;;25.45;25.17;101123.09;5017710;28;20052;-67
2021/04/24 10:11:28;;;;;;;18.50;7.65;;;;;;;27.23;21.81;101110.78;5017678;28;20191;-66
2021/04/24 10:14:13;;;;;;;11.02;7.50;;;;;;;27.23;21.81;101110.78;5017712;28;20163;-67
2021/04/24 10:16:58;;;;;;;16.65;8.60;;;;;;;30.02;18.52;101094.25;5017647;28;20553;-67
2021/04/24 10:19:43;;;;;;;13.60;8.57;;;;;;;30.84;17.46;101095.22;5032342;28;20460;-66
2021/04/24 10:22:27;;;;;;;13.10;8.02;;;;;;;30.21;17.91;101097.63;5031395;28;20088;-66
2021/04/24 10:25:12;;;;;;;14.15;7.85;;;;;;;31.84;16.13;101085.28;5032469;28;20051;-67
2021/04/24 10:27:57;;;;;;;15.15;8.75;;;;;;;32.35;15.45;101084.56;5017585;28;20103;-67
2021/04/24 10:30:41;;;;;;;15.43;8.05;;;;;;;32.11;16.00;101083.28;5032208;28;20048;-67
2021/04/24 10:33:25;;;;;;;12.70;8.23;;;;;;;32.31;15.67;101086.22;5017494;28;20530;-67
2021/04/24 10:36:11;;;;;;;15.38;7.75;;;;;;;32.63;16.27;101086.94;5034257;28;20048;-67
2021/04/24 10:38:56;;;;;;;11.55;8.27;;;;;;;32.16;15.86;101084.16;5036262;28;20469;-67
2021/04/24 10:41:47;;;;;;;12.48;8.70;;;;;;;32.67;14.92;101077.03;5035475;28;20100;-67
2021/04/24 10:44:58;;;;;;;15.07;9.50;;;;;;;32.96;14.96;101064.44;5036118;28;20048;-67
2021/04/24 10:47:53;;;;;;;11.15;8.27;;;;;;;33.12;15.07;101067.00;5035223;28;20045;-67
2021/04/24 10:50:40;;;;;;;12.18;8.35;;;;;;;32.27;14.88;101057.50;5034946;28;20132;-67
2021/04/24 10:53:30;;;;;;;16.02;8.05;;;;;;;32.48;16.10;101056.50;5035865;28;20164;-67
2021/04/24 10:56:29;;;;;;;13.57;7.82;;;;;;;33.47;14.97;101045.78;5036146;28;20406;-67
2021/04/24 10:59:27;;;;;;;12.48;8.10;;;;;;;34.36;13.64;101044.06;5035974;28;20049;-67
2021/04/24 11:02:13;;;;;;;17.88;9.13;;;;;;;33.99;14.64;101049.13;5034911;28;20448;-67
2021/04/24 11:04:57;;;;;;;41.88;33.55;;;;;;;34.67;13.73;101044.81;5036009;28;20128;-67
2021/04/24 11:07:41;;;;;;;12.85;8.65;;;;;;;35.10;13.73;101044.06;5034915;28;20071;-67
2021/04/24 11:10:25;;;;;;;11.85;8.43;;;;;;;34.61;13.22;101043.16;5035875;28;20524;-67
2021/04/24 11:13:11;;;;;;;18.75;8.68;;;;;;;34.56;13.66;101038.47;5034973;28;20179;-66
2021/04/24 11:15:55;;;;;;;15.95;8.70;;;;;;;34.64;13.20;101035.13;5034721;28;20099;-67
2021/04/24 11:18:41;;;;;;;15.60;9.73;;;;;;;33.43;13.48;101033.63;5020668;28;20068;-67
2021/04/24 11:21:27;;;;;;;15.05;9.65;;;;;;;34.11;13.37;101030.28;5034330;28;20064;-67
2021/04/24 11:24:11;;;;;;;14.70;8.70;;;;;;;34.02;12.88;101023.66;5020807;28;20402;-67
2021/04/24 11:26:55;;;;;;;11.48;9.05;;;;;;;34.57;13.53;101031.00;5034641;28;20510;-67
2021/04/24 11:29:40;;;;;;;13.02;9.05;;;;;;;34.72;13.03;101022.66;5020509;28;20191;-67
2021/04/24 11:32:24;;;;;;;11.73;8.77;;;;;;;35.07;13.14;101017.72;5034476;28;20118;-67
2021/04/24 11:35:11;;;;;;;13.23;9.13;;;;;;;34.45;12.86;101014.69;5034510;28;20111;-67
2021/04/24 11:37:55;;;;;;;11.98;8.57;;;;;;;35.65;12.36;101008.47;5034283;28;20405;-67
2021/04/24 11:40:39;;;;;;;14.00;9.23;;;;;;;36.17;12.01;101005.75;5035339;28;20047;-67
2021/04/24 11:43:28;;;;;;;12.40;9.30;;;;;;;36.66;11.83;101009.88;5034251;28;20095;-67
2021/04/24 11:46:33;;;;;;;11.60;9.23;;;;;;;36.69;11.50;100997.34;5034637;28;20049;-67
2021/04/24 11:49:18;;;;;;;14.90;9.02;;;;;;;36.63;10.94;101012.41;5006772;28;20586;-67
2021/04/24 11:52:09;;;;;;;10.73;8.80;;;;;;;36.92;11.11;101005.63;5033848;28;20098;-66
2021/04/24 11:54:53;;;;;;;13.15;9.32;;;;;;;37.33;10.61;101003.06;5033747;28;20060;-67
2021/04/24 11:57:37;;;;;;;12.82;9.05;;;;;;;36.51;10.69;101006.44;5005927;28;20128;-67
2021/04/24 12:00:28;;;;;;;11.52;8.23;;;;;;;36.02;11.05;101005.84;5034775;28;20140;-67
2021/04/24 12:06:05;;;;;;;11.82;8.70;;;;;;;35.72;10.65;100992.28;5013787;28;20514;-64
2021/04/24 12:08:49;;;;;;;10.30;8.52;;;;;;;35.23;11.50;100994.38;5028206;28;20506;-64
2021/04/24 12:11:33;;;;;;;13.32;8.68;;;;;;;35.24;11.83;100990.47;5028241;28;20073;-64
2021/04/24 12:14:19;;;;;;;11.93;8.60;;;;;;;35.16;11.94;100984.66;5022963;28;20048;-64
2021/04/24 12:17:08;;;;;;;9.98;8.43;;;;;;;35.90;11.47;100980.47;5033579;28;20126;-64
2021/04/24 12:19:53;;;;;;;11.63;8.35;;;;;;;36.04;11.46;100973.13;5047993;28;20055;-64
2021/04/24 12:22:38;;;;;;;13.40;8.20;;;;;;;36.26;11.17;100977.03;5034586;28;20049;-64
2021/04/24 12:25:25;;;;;;;12.40;8.55;;;;;;;36.39;10.44;100976.31;5019449;28;20048;-64
2021/04/24 12:28:10;;;;;;;13.80;8.15;;;;;;;35.77;10.91;100967.28;5033673;28;20056;-64
2021/04/24 12:30:55;;;;;;;10.43;7.90;;;;;;;35.52;11.29;100964.75;5034644;28;20079;-64
2021/04/24 12:33:46;;;;;;;13.73;8.88;;;;;;;35.48;10.51;100962.84;5047276;28;20095;-64
2021/04/24 12:36:39;;;;;;;11.73;8.48;;;;;;;35.66;10.43;100959.34;5033444;28;20048;-64
2021/04/24 12:39:23;;;;;;;13.45;8.88;;;;;;;36.16;10.33;100951.34;5033930;28;20183;-68
2021/04/24 12:42:11;;;;;;;12.48;8.93;;;;;;;36.53;10.40;100954.16;5019452;28;20055;-68
2021/04/24 12:44:56;;;;;;;15.07;7.90;;;;;;;37.04;10.50;100949.59;5034482;28;20080;-67
2021/04/24 12:47:40;;;;;;;11.73;7.85;;;;;;;36.37;10.61;100949.97;5033238;28;20403;-68
2021/04/24 12:50:35;;;;;;;10.93;7.20;;;;;;;36.06;11.12;100945.88;5034071;28;20075;-68